Time;durP1;ratioP1;P1;durP2;ratioP2;P2;SDS_P1;SDS_P2;PMS_P1;PMS_P2;Temp;Humidity;BMP_temperature;BMP_pressure;BME280_temperature;BME280_humidity;BME280_pressure;Samples;Min_cycle;Max_cycle;Signal;HPM_P1;HPM_P2
2023/09/13 00:00:04;;;;;;;;;;;23.90;71.50;;;;;;5071890;28;19920;-71
2023/09/13 00:02:29;;;;;;;;;;;23.90;71.50;;;;;;5054164;28;19928;-67
2023/09/13 00:04:56;;;;;;;;;;;24.00;71.60;;;;;;5054003;28;19925;-67
2023/09/13 00:07:22;;;;;;;;;;;24.00;71.60;;;;;;5053427;28;19924;-66
2023/09/13 00:09:47;;;;;;;;;;;24.00;71.60;;;;;;5087470;28;19927;-66
2023/09/13 00:12:13;;;;;;;;;;;23.90;71.50;;;;;;5053635;28;19920;-67
2023/09/13 00:14:38;;;;;;;;;;;23.90;71.50;;;;;;5073436;28;19929;-71
2023/09/13 00:17:04;;;;;;;;;;;23.90;71.50;;;;;;5057590;28;20019;-67
2023/09/13 00:19:30;;;;;;;;;;;23.90;71.60;;;;;;5057222;28;19927;-72
2023/09/13 00:21:56;;;;;;;;;;;23.90;71.60;;;;;;5057540;28;19921;-67
2023/09/13 00:24:21;;;;;;;;;;;23.90;71.60;;;;;;5057548;28;19920;-67
2023/09/13 00:26:47;;;;;;;;;;;23.90;71.60;;;;;;5056953;28;19931;-67
2023/09/13 00:29:15;;;;;;;;;;;23.90;71.60;;;;;;5057329;28;19990;-66
2023/09/13 00:31:41;;;;;;;;;;;23.90;71.60;;;;;;5056953;28;20490;-66
2023/09/13 00:34:07;;;;;;;;;;;23.90;71.60;;;;;;5075022;28;20014;-66
2023/09/13 00:36:32;;;;;;;;;;;23.90;71.60;;;;;;5057338;28;19956;-67
2023/09/13 00:38:58;;;;;;;;;;;23.90;71.60;;;;;;5056911;28;19971;-67
2023/09/13 00:41:23;;;;;;;;;;;23.90;71.60;;;;;;5056118;28;19978;-67
2023/09/13 00:43:49;;;;;;;;;;;23.90;71.70;;;;;;5057163;28;20479;-67
2023/09/13 00:46:14;;;;;;;;;;;23.80;71.60;;;;;;5056623;28;19921;-67
2023/09/13 00:48:41;;;;;;;;;;;23.80;71.60;;;;;;5056762;28;20142;-72
2023/09/13 00:51:08;;;;;;;;;;;23.80;71.60;;;;;;5056973;28;19920;-67
2023/09/13 00:53:34;;;;;;;;;;;23.80;71.60;;;;;;5056848;28;19921;-67
2023/09/13 00:56:00;;;;;;;;;;;23.80;71.60;;;;;;5074533;28;20015;-71
2023/09/13 00:58:26;;;;;;;;;;;23.80;71.70;;;;;;5056816;28;19920;-67
2023/09/13 01:00:53;;;;;;;;;;;23.90;71.70;;;;;;5074725;28;19928;-67
2023/09/13 01:03:20;;;;;;;;;;;23.80;71.70;;;;;;5056816;28;20272;-67
2023/09/13 01:05:46;;;;;;;;;;;23.80;71.70;;;;;;5056665;28;19920;-72
2023/09/13 01:08:12;;;;;;;;;;;23.80;71.70;;;;;;5056221;28;19924;-67
2023/09/13 01:10:41;;;;;;;;;;;23.80;71.70;;;;;;5074258;28;19928;-71
2023/09/13 01:13:06;;;;;;;;;;;23.90;71.80;;;;;;5056537;28;19921;-67
2023/09/13 01:15:35;;;;;;;;;;;23.80;71.70;;;;;;5056575;28;20019;-67
2023/09/13 01:18:03;;;;;;;;;;;23.90;71.70;;;;;;5056056;28;20384;-67
2023/09/13 01:20:39;;;;;;;;;;;23.80;71.70;;;;;;5056415;28;19927;-67
2023/09/13 01:23:16;;;;;;;;;;;23.80;71.70;;;;;;5056330;28;19983;-71
2023/09/13 01:25:49;;;;;;;;;;;23.80;71.70;;;;;;5073838;28;19925;-73
2023/09/13 01:28:35;;;;;;;;;;;23.80;71.70;;;;;;5055878;28;20030;-71
2023/09/13 01:31:03;;;;;;;;;;;23.80;71.80;;;;;;5056037;28;19931;-66
2023/09/13 01:33:28;;;;;;;;;;;23.80;71.70;;;;;;5073761;28;19921;-71
2023/09/13 01:35:53;;;;;;;;;;;23.80;71.70;;;;;;5073789;28;19978;-67
2023/09/13 01:38:19;;;;;;;;;;;23.80;71.80;;;;;;5072984;28;19930;-67
2023/09/13 01:40:46;;;;;;;;;;;23.70;71.70;;;;;;5055976;28;19925;-67
2023/09/13 01:43:12;;;;;;;;;;;23.80;71.80;;;;;;5055950;28;19920;-67
2023/09/13 01:45:38;;;;;;;;;;;23.80;71.80;;;;;;5055605;28;19924;-67
2023/09/13 01:48:04;;;;;;;;;;;23.80;71.80;;;;;;5055493;28;19974;-66
2023/09/13 01:50:30;;;;;;;;;;;23.70;71.80;;;;;;5055591;28;20223;-67
2023/09/13 01:52:56;;;;;;;;;;;23.70;71.70;;;;;;5055673;28;20351;-67
2023/09/13 01:55:21;;;;;;;;;;;23.70;71.70;;;;;;5055521;28;19963;-67
2023/09/13 01:57:47;;;;;;;;;;;23.80;71.80;;;;;;5073271;28;19927;-71
2023/09/13 02:00:13;;;;;;;;;;;23.80;71.80;;;;;;5073388;28;19921;-67
2023/09/13 02:02:38;;;;;;;;;;;23.70;71.80;;;;;;5055270;28;19920;-71
2023/09/13 02:05:04;;;;;;;;;;;23.80;71.80;;;;;;5055150;28;19920;-67
2023/09/13 02:07:29;;;;;;;;;;;23.70;71.80;;;;;;5072842;28;19931;-72
2023/09/13 02:09:55;;;;;;;;;;;23.80;71.80;;;;;;5055019;28;19925;-67
2023/09/13 02:12:20;;;;;;;;;;;23.70;71.80;;;;;;5073059;28;19931;-71
2023/09/13 02:14:46;;;;;;;;;;;23.70;71.80;;;;;;5055070;28;20015;-67
2023/09/13 02:17:11;;;;;;;;;;;23.70;71.80;;;;;;5072905;28;19928;-67
2023/09/13 02:19:37;;;;;;;;;;;23.70;71.80;;;;;;5072909;28;19990;-67
2023/09/13 02:22:02;;;;;;;;;;;23.70;71.70;;;;;;5055194;28;19974;-67
2023/09/13 02:24:28;;;;;;;;;;;23.70;71.70;;;;;;5055157;28;20043;-67
2023/09/13 02:26:54;;;;;;;;;;;23.70;71.70;;;;;;5053886;28;19951;-71
2023/09/13 02:29:22;;;;;;;;;;;23.70;71.70;;;;;;5054995;28;19924;-67
2023/09/13 02:31:48;;;;;;;;;;;23.70;71.70;;;;;;5054741;28;19924;-70
2023/09/13 02:34:14;;;;;;;;;;;23.70;71.70;;;;;;5072684;28;19920;-67
2023/09/13 02:36:39;;;;;;;;;;;23.70;71.70;;;;;;5072743;28;19920;-67
2023/09/13 02:39:05;;;;;;;;;;;23.70;71.70;;;;;;5073027;28;19927;-71
2023/09/13 02:41:30;;;;;;;;;;;23.70;71.70;;;;;;5054860;28;20448;-67
2023/09/13 02:43:55;;;;;;;;;;;23.60;71.60;;;;;;5072736;28;20458;-67
2023/09/13 02:46:21;;;;;;;;;;;23.70;71.60;;;;;;5054455;28;19974;-67
2023/09/13 02:48:47;;;;;;;;;;;23.60;71.60;;;;;;5054489;28;20006;-67
2023/09/13 02:51:13;;;;;;;;;;;23.60;71.50;;;;;;5054500;28;20042;-68
2023/09/13 02:53:38;;;;;;;;;;;23.60;72.30;;;;;;5054777;28;19928;-71
2023/09/13 02:56:05;;;;;;;;;;;23.60;71.50;;;;;;5054295;28;19920;-67
2023/09/13 02:58:30;;;;;;;;;;;23.60;71.50;;;;;;5054663;28;19920;-67
2023/09/13 03:00:56;;;;;;;;;;;23.60;71.50;;;;;;5054608;28;20011;-71
2023/09/13 03:03:22;;;;;;;;;;;23.60;71.50;;;;;;5054297;28;20398;-67
2023/09/13 03:05:48;;;;;;;;;;;23.60;71.50;;;;;;5054244;28;20018;-67
2023/09/13 03:08:13;;;;;;;;;;;23.60;71.50;;;;;;5072007;28;20284;-71
2023/09/13 03:10:39;;;;;;;;;;;23.60;71.50;;;;;;5054130;28;19969;-67
2023/09/13 03:13:04;;;;;;;;;;;23.60;71.50;;;;;;5072418;28;19921;-67
2023/09/13 03:15:32;;;;;;;;;;;23.60;71.50;;;;;;5054429;28;19950;-67
2023/09/13 03:17:58;;;;;;;;;;;23.60;71.50;;;;;;5054520;28;19921;-67
2023/09/13 03:20:23;;;;;;;;;;;23.50;71.50;;;;;;5054159;28;19927;-67
2023/09/13 03:22:48;;;;;;;;;;;23.60;71.50;;;;;;5072132;28;19926;-67
2023/09/13 03:25:14;;;;;;;;;;;23.50;71.50;;;;;;5054163;28;20277;-67
2023/09/13 03:27:40;;;;;;;;;;;23.50;71.50;;;;;;5054154;28;19935;-67
2023/09/13 03:30:06;;;;;;;;;;;23.50;71.50;;;;;;5054460;28;19956;-67
2023/09/13 03:32:31;;;;;;;;;;;23.50;71.50;;;;;;5053999;28;19925;-71
2023/09/13 03:34:57;;;;;;;;;;;23.50;71.50;;;;;;5054376;28;19925;-71
2023/09/13 03:37:22;;;;;;;;;;;23.50;71.50;;;;;;5053997;28;20003;-67
2023/09/13 03:39:48;;;;;;;;;;;23.50;71.50;;;;;;5054360;28;19920;-67
2023/09/13 03:42:13;;;;;;;;;;;23.50;71.50;;;;;;5054182;28;19920;-67
2023/09/13 03:44:39;;;;;;;;;;;23.50;71.50;;;;;;5071998;28;20392;-67
2023/09/13 03:47:04;;;;;;;;;;;23.50;71.40;;;;;;5071770;28;19931;-66
2023/09/13 03:49:30;;;;;;;;;;;23.50;71.30;;;;;;5055775;28;20003;-71
2023/09/13 03:51:55;;;;;;;;;;;23.50;71.30;;;;;;5075714;28;19946;-67
2023/09/13 03:54:21;;;;;;;;;;;23.50;71.30;;;;;;5058043;28;20371;-72
2023/09/13 03:56:47;;;;;;;;;;;23.50;71.30;;;;;;5075543;28;19920;-71
2023/09/13 03:59:12;;;;;;;;;;;23.50;71.30;;;;;;5057616;28;20435;-71
2023/09/13 04:01:38;;;;;;;;;;;23.50;71.30;;;;;;5075536;28;19921;-71
2023/09/13 04:04:03;;;;;;;;;;;23.50;71.30;;;;;;5057531;28;20006;-67
2023/09/13 04:06:29;;;;;;;;;;;23.50;71.30;;;;;;5057424;28;20003;-67
2023/09/13 04:08:54;;;;;;;;;;;23.40;71.30;;;;;;5057433;28;20376;-69
2023/09/13 04:11:20;;;;;;;;;;;23.40;71.30;;;;;;5075351;28;20367;-67
2023/09/13 04:13:45;;;;;;;;;;;23.50;71.30;;;;;;5075233;28;19928;-71
2023/09/13 04:16:13;;;;;;;;;;;23.40;71.20;;;;;;5075647;28;19924;-71
2023/09/13 04:18:39;;;;;;;;;;;23.40;71.20;;;;;;5075493;28;19927;-71
2023/09/13 04:21:04;;;;;;;;;;;23.40;71.20;;;;;;5057506;28;19920;-67
2023/09/13 04:23:30;;;;;;;;;;;23.40;71.20;;;;;;5057174;28;19935;-67
2023/09/13 04:25:55;;;;;;;;;;;23.40;71.20;;;;;;5057537;28;19985;-71
2023/09/13 04:28:20;;;;;;;;;;;23.40;71.30;;;;;;5056941;28;20538;-67
2023/09/13 04:30:46;;;;;;;;;;;23.40;71.20;;;;;;5075056;28;19932;-71
2023/09/13 04:33:11;;;;;;;;;;;23.40;71.20;;;;;;5075107;28;20291;-67
2023/09/13 04:35:37;;;;;;;;;;;23.40;71.20;;;;;;5057040;28;19920;-67
2023/09/13 04:38:02;;;;;;;;;;;23.40;71.20;;;;;;5057168;28;19920;-71
2023/09/13 04:40:28;;;;;;;;;;;23.30;71.10;;;;;;5056935;28;20019;-67
2023/09/13 04:42:55;;;;;;;;;;;23.30;71.00;;;;;;5056845;28;19924;-67
2023/09/13 04:45:22;;;;;;;;;;;23.40;71.10;;;;;;5056779;28;19978;-71
2023/09/13 04:47:47;;;;;;;;;;;23.40;71.10;;;;;;5074636;28;19920;-67
2023/09/13 04:50:12;;;;;;;;;;;23.40;71.00;;;;;;5056975;28;20295;-67
2023/09/13 04:52:38;;;;;;;;;;;23.30;71.00;;;;;;5056661;28;20273;-68
2023/09/13 04:55:05;;;;;;;;;;;23.40;71.00;;;;;;5074562;28;19963;-67
2023/09/13 04:57:30;;;;;;;;;;;23.30;70.90;;;;;;5056581;28;19927;-67
2023/09/13 04:59:56;;;;;;;;;;;23.30;70.90;;;;;;5074090;28;19921;-67
2023/09/13 05:02:21;;;;;;;;;;;23.30;70.90;;;;;;5074685;28;19927;-67
2023/09/13 05:04:47;;;;;;;;;;;23.30;70.90;;;;;;5056637;28;20383;-70
2023/09/13 05:07:12;;;;;;;;;;;23.30;70.90;;;;;;5074076;28;20035;-70
2023/09/13 05:09:38;;;;;;;;;;;23.30;70.90;;;;;;5074228;28;19920;-67
2023/09/13 05:12:04;;;;;;;;;;;23.30;70.90;;;;;;5074310;28;19944;-69
2023/09/13 05:14:30;;;;;;;;;;;23.30;70.90;;;;;;5056265;28;19921;-66
2023/09/13 05:16:55;;;;;;;;;;;23.30;70.90;;;;;;5074126;28;19924;-70
2023/09/13 05:19:21;;;;;;;;;;;23.30;71.60;;;;;;5056440;28;19924;-70
2023/09/13 05:21:47;;;;;;;;;;;23.30;70.90;;;;;;5056409;28;20326;-66
2023/09/13 05:24:12;;;;;;;;;;;23.30;70.80;;;;;;5056046;28;19920;-66
2023/09/13 05:26:38;;;;;;;;;;;23.30;70.80;;;;;;5073756;28;19921;-67
2023/09/13 05:29:03;;;;;;;;;;;23.30;70.80;;;;;;5072970;28;19920;-72
2023/09/13 05:31:29;;;;;;;;;;;23.20;70.80;;;;;;5055857;28;20346;-71
2023/09/13 05:33:54;;;;;;;;;;;23.20;70.70;;;;;;5073761;28;19925;-68
2023/09/13 05:36:20;;;;;;;;;;;23.20;70.80;;;;;;5070777;28;19952;-68
2023/09/13 05:38:46;;;;;;;;;;;23.30;70.90;;;;;;5072465;28;19921;-71
2023/09/13 05:41:11;;;;;;;;;;;23.30;70.90;;;;;;5055924;28;19924;-65
2023/09/13 05:43:37;;;;;;;;;;;23.30;70.90;;;;;;5085627;28;19921;-65
2023/09/13 05:46:03;;;;;;;;;;;23.30;70.60;;;;;;5070250;28;20457;-65
2023/09/13 05:48:29;;;;;;;;;;;23.20;70.20;;;;;;5069371;28;19924;-65
2023/09/13 05:50:54;;;;;;;;;;;23.20;70.20;;;;;;5080000;28;19928;-66
2023/09/13 05:53:20;;;;;;;;;;;23.20;70.00;;;;;;5052898;28;19920;-65
2023/09/13 05:55:46;;;;;;;;;;;23.20;69.80;;;;;;5053184;28;20427;-65
2023/09/13 05:58:12;;;;;;;;;;;23.10;69.60;;;;;;5053930;28;19970;-65
2023/09/13 06:00:37;;;;;;;;;;;23.00;69.70;;;;;;5047528;28;19964;-65
2023/09/13 06:03:03;;;;;;;;;;;23.00;69.60;;;;;;5050384;28;19921;-66
2023/09/13 06:05:28;;;;;;;;;;;23.10;69.50;;;;;;5049185;28;19973;-65
2023/09/13 06:07:54;;;;;;;;;;;23.00;69.30;;;;;;5047601;28;19924;-66
2023/09/13 06:10:19;;;;;;;;;;;23.00;69.00;;;;;;5046644;28;20221;-65
2023/09/13 06:12:45;;;;;;;;;;;23.00;68.70;;;;;;5048170;28;19921;-65
2023/09/13 06:15:11;;;;;;;;;;;23.00;68.60;;;;;;5033299;28;20427;-66
2023/09/13 06:17:36;;;;;;;;;;;23.00;68.40;;;;;;5021585;28;20024;-67
2023/09/13 06:20:04;;;;;;;;;;;23.00;68.20;;;;;;5055498;28;20007;-66
2023/09/13 06:22:32;;;;;;;;;;;23.00;68.00;;;;;;5060051;28;19927;-68
2023/09/13 06:24:59;;;;;;;;;;;23.00;67.80;;;;;;5043332;28;19924;-68
2023/09/13 06:27:24;;;;;;;;;;;22.90;67.40;;;;;;5062100;28;20049;-67
2023/09/13 06:29:50;;;;;;;;;;;22.90;67.40;;;;;;5045309;28;20387;-67
2023/09/13 06:32:15;;;;;;;;;;;22.90;67.40;;;;;;5068665;28;19924;-67
2023/09/13 06:34:41;;;;;;;;;;;22.80;67.30;;;;;;5068566;28;19981;-72
2023/09/13 06:37:06;;;;;;;;;;;22.80;67.30;;;;;;5080954;28;19929;-73
2023/09/13 06:39:32;;;;;;;;;;;22.80;67.30;;;;;;5048677;28;19997;-67
2023/09/13 06:41:57;;;;;;;;;;;22.80;67.20;;;;;;5074198;28;20040;-67
2023/09/13 06:44:23;;;;;;;;;;;22.80;67.00;;;;;;5078019;28;19939;-67
2023/09/13 06:46:48;;;;;;;;;;;22.80;67.00;;;;;;5064874;28;20273;-67
2023/09/13 06:49:14;;;;;;;;;;;22.90;66.90;;;;;;5064458;28;19924;-67
2023/09/13 06:51:39;;;;;;;;;;;22.90;66.70;;;;;;5044702;28;20579;-67
2023/09/13 06:54:05;;;;;;;;;;;22.90;66.70;;;;;;5065205;28;19927;-67
2023/09/13 06:56:30;;;;;;;;;;;22.90;66.60;;;;;;5065061;28;19977;-67
2023/09/13 06:58:56;;;;;;;;;;;22.90;66.50;;;;;;5068129;28;19924;-68
2023/09/13 07:01:21;;;;;;;;;;;23.00;66.50;;;;;;5044902;28;19923;-67
2023/09/13 07:03:47;;;;;;;;;;;23.00;66.40;;;;;;5064812;28;19929;-68
2023/09/13 07:06:12;;;;;;;;;;;23.00;66.40;;;;;;5038773;28;20341;-68
2023/09/13 07:08:38;;;;;;;;;;;23.00;66.40;;;;;;5040023;28;20145;-67
2023/09/13 07:11:03;;;;;;;;;;;23.00;66.30;;;;;;5067416;28;19924;-68
2023/09/13 07:13:29;;;;;;;;;;;23.00;66.30;;;;;;5060458;28;19932;-68
2023/09/13 07:15:54;;;;;;;;;;;23.00;66.20;;;;;;5041299;28;19959;-69
2023/09/13 07:18:20;;;;;;;;;;;23.00;66.30;;;;;;5076950;28;20830;-69
2023/09/13 07:20:45;;;;;;;;;;;23.00;66.20;;;;;;5048581;28;19974;-69
2023/09/13 07:23:11;;;;;;;;;;;23.00;66.20;;;;;;5045527;28;19961;-69
2023/09/13 07:25:36;;;;;;;;;;;23.00;66.30;;;;;;5052516;28;19928;-69
2023/09/13 07:28:02;;;;;;;;;;;23.00;66.40;;;;;;5077970;28;19937;-69
2023/09/13 07:30:28;;;;;;;;;;;23.00;66.50;;;;;;5069206;28;19931;-69
2023/09/13 07:32:54;;;;;;;;;;;22.90;66.50;;;;;;5050306;28;20443;-69
2023/09/13 07:35:20;;;;;;;;;;;22.90;66.50;;;;;;5066018;28;20013;-67
2023/09/13 07:37:46;;;;;;;;;;;23.00;66.60;;;;;;5071196;28;19924;-72
2023/09/13 07:40:12;;;;;;;;;;;22.90;66.50;;;;;;5050478;28;19924;-67
2023/09/13 07:42:37;;;;;;;;;;;22.90;66.60;;;;;;5071600;28;19924;-68
2023/09/13 07:45:03;;;;;;;;;;;23.00;66.60;;;;;;5053081;28;19928;-67
2023/09/13 07:47:29;;;;;;;;;;;23.00;66.80;;;;;;5048121;28;19932;-69
2023/09/13 07:49:58;;;;;;;;;;;23.00;66.90;;;;;;5051474;28;19928;-68
2023/09/13 07:52:24;;;;;;;;;;;23.00;67.60;;;;;;5051489;28;19926;-68
2023/09/13 07:54:50;;;;;;;;;;;23.00;66.90;;;;;;5053395;28;19924;-69
2023/09/13 07:57:16;;;;;;;;;;;23.00;66.90;;;;;;5080940;28;19967;-68
2023/09/13 07:59:41;;;;;;;;;;;23.00;67.00;;;;;;5030469;28;20387;-68
2023/09/13 08:02:07;;;;;;;;;;;22.90;66.90;;;;;;5082359;28;19956;-68
2023/09/13 08:04:33;;;;;;;;;;;22.90;67.00;;;;;;5050677;28;20538;-68
2023/09/13 08:06:59;;;;;;;;;;;23.00;67.00;;;;;;5069644;28;19971;-67
2023/09/13 08:09:25;;;;;;;;;;;23.00;67.10;;;;;;5045275;28;20358;-69
2023/09/13 08:11:50;;;;;;;;;;;22.90;67.10;;;;;;5049995;28;20003;-69
2023/09/13 08:14:16;;;;;;;;;;;22.90;67.10;;;;;;5083584;28;19932;-68
2023/09/13 08:16:41;;;;;;;;;;;23.00;67.10;;;;;;5048174;28;20007;-67
2023/09/13 08:19:08;;;;;;;;;;;23.00;67.00;;;;;;5082625;28;19947;-67
2023/09/13 08:21:33;;;;;;;;;;;23.00;66.90;;;;;;5069175;28;19958;-67
2023/09/13 08:23:59;;;;;;;;;;;23.00;66.90;;;;;;5070030;28;20375;-67
2023/09/13 08:26:25;;;;;;;;;;;23.00;66.90;;;;;;5049287;28;19928;-67
2023/09/13 08:28:51;;;;;;;;;;;23.00;66.80;;;;;;5047245;28;20466;-67
2023/09/13 08:31:17;;;;;;;;;;;22.90;66.80;;;;;;5052052;28;20390;-67
2023/09/13 08:33:43;;;;;;;;;;;23.00;66.80;;;;;;5050153;28;20425;-68
2023/09/13 08:36:09;;;;;;;;;;;22.90;66.80;;;;;;5039800;28;19928;-68
2023/09/13 08:38:34;;;;;;;;;;;22.90;66.90;;;;;;5053348;28;20549;-69
2023/09/13 08:41:01;;;;;;;;;;;23.00;66.90;;;;;;5073756;28;20591;-66
2023/09/13 08:43:28;;;;;;;;;;;23.00;66.90;;;;;;5044190;28;19951;-76
2023/09/13 08:45:54;;;;;;;;;;;23.00;67.00;;;;;;5073049;28;19924;-67
2023/09/13 08:48:20;;;;;;;;;;;23.00;67.10;;;;;;5047051;28;19928;-69
2023/09/13 08:50:47;;;;;;;;;;;23.00;67.10;;;;;;5077099;28;19965;-69
2023/09/13 08:53:13;;;;;;;;;;;23.00;67.10;;;;;;5045430;28;19936;-71
2023/09/13 08:55:40;;;;;;;;;;;23.00;67.20;;;;;;5045105;28;20375;-69
2023/09/13 08:58:05;;;;;;;;;;;23.10;67.20;;;;;;5043538;28;20294;-67
2023/09/13 09:00:33;;;;;;;;;;;23.00;67.80;;;;;;5065647;28;19928;-69
2023/09/13 09:03:01;;;;;;;;;;;23.10;67.10;;;;;;5041112;28;19957;-70
2023/09/13 09:05:27;;;;;;;;;;;23.10;67.20;;;;;;5042680;28;19955;-70
2023/09/13 09:07:54;;;;;;;;;;;23.10;67.20;;;;;;5074540;28;20090;-69
2023/09/13 09:10:20;;;;;;;;;;;23.10;67.30;;;;;;5049844;28;19928;-70
2023/09/13 09:12:47;;;;;;;;;;;23.20;67.40;;;;;;5045942;28;19928;-68
2023/09/13 09:15:14;;;;;;;;;;;23.20;67.50;;;;;;5058763;28;19924;-70
2023/09/13 09:17:40;;;;;;;;;;;23.20;67.50;;;;;;5065200;28;19954;-71
2023/09/13 09:20:06;;;;;;;;;;;23.20;67.40;;;;;;5073536;28;19954;-69
2023/09/13 09:22:32;;;;;;;;;;;23.20;67.50;;;;;;5081374;28;19950;-68
2023/09/13 09:24:59;;;;;;;;;;;23.20;67.40;;;;;;5043484;28;20375;-69
2023/09/13 09:27:24;;;;;;;;;;;23.20;67.40;;;;;;5049067;28;19928;-71
2023/09/13 09:29:58;;;;;;;;;;;23.20;67.40;;;;;;5043655;28;19993;-69
2023/09/13 09:32:26;;;;;;;;;;;23.20;67.40;;;;;;5075240;28;19934;-77
2023/09/13 09:34:51;;;;;;;;;;;23.30;67.50;;;;;;5035452;28;20019;-72
2023/09/13 09:37:18;;;;;;;;;;;23.20;67.50;;;;;;5063738;28;19924;-71
2023/09/13 09:39:43;;;;;;;;;;;23.30;67.50;;;;;;5041453;28;19931;-67
2023/09/13 09:42:16;;;;;;;;;;;23.20;67.50;;;;;;5061002;28;19924;-67
2023/09/13 09:44:41;;;;;;;;;;;23.30;67.50;;;;;;5046857;28;19951;-70
2023/09/13 09:47:11;;;;;;;;;;;23.30;67.60;;;;;;5062389;28;20518;-67
2023/09/13 09:49:37;;;;;;;;;;;23.30;67.50;;;;;;5061768;28;19998;-75
2023/09/13 09:52:03;;;;;;;;;;;23.30;67.90;;;;;;5075111;28;20477;-74
2023/09/13 09:54:28;;;;;;;;;;;23.30;67.40;;;;;;5075079;28;19924;-71
2023/09/13 09:56:54;;;;;;;;;;;23.30;67.30;;;;;;5039370;28;19925;-71
2023/09/13 09:59:19;;;;;;;;;;;23.30;67.20;;;;;;5075302;28;19928;-69
2023/09/13 10:01:46;;;;;;;;;;;23.30;68.00;;;;;;5034039;28;21744;-66
2023/09/13 10:04:12;;;;;;;;;;;23.30;67.20;;;;;;5057038;28;19959;-67
2023/09/13 10:06:54;;;;;;;;;;;23.30;67.20;;;;;;5043917;28;20393;-67
2023/09/13 10:09:20;;;;;;;;;;;23.30;67.10;;;;;;5037364;28;19928;-67
2023/09/13 10:11:45;;;;;;;;;;;23.30;67.00;;;;;;5061504;28;19928;-67
2023/09/13 10:14:24;;;;;;;;;;;23.30;67.00;;;;;;5062198;28;20426;-69
2023/09/13 10:16:49;;;;;;;;;;;23.30;67.00;;;;;;5033326;28;19924;-67
2023/09/13 10:19:15;;;;;;;;;;;23.30;66.90;;;;;;5037571;28;19921;-72
2023/09/13 10:21:41;;;;;;;;;;;23.30;66.90;;;;;;5036682;28;20342;-70
2023/09/13 10:24:07;;;;;;;;;;;23.30;66.70;;;;;;5035406;28;19970;-70
2023/09/13 10:26:33;;;;;;;;;;;23.30;66.80;;;;;;5040402;28;20693;-70
2023/09/13 10:29:05;;;;;;;;;;;23.30;66.70;;;;;;5022330;28;19940;-71
2023/09/13 10:31:32;;;;;;;;;;;23.30;66.50;;;;;;5071843;28;20009;-68
2023/09/13 10:33:59;;;;;;;;;;;23.30;66.50;;;;;;5040758;28;19935;-69
2023/09/13 10:36:27;;;;;;;;;;;23.20;66.30;;;;;;5074205;28;20020;-71
2023/09/13 10:39:13;;;;;;;;;;;23.20;66.20;;;;;;5042978;28;19954;-71
2023/09/13 10:41:42;;;;;;;;;;;23.20;66.10;;;;;;5042520;28;20175;-73
2023/09/13 10:44:09;;;;;;;;;;;23.20;66.10;;;;;;5041575;28;19956;-71
2023/09/13 10:46:34;;;;;;;;;;;23.20;66.00;;;;;;5063385;28;19931;-71
2023/09/13 10:49:01;;;;;;;;;;;23.20;65.90;;;;;;5062833;28;19941;-71
2023/09/13 10:51:29;;;;;;;;;;;23.20;66.00;;;;;;5040465;28;19970;-72
2023/09/13 10:53:55;;;;;;;;;;;23.10;65.80;;;;;;5043822;28;19952;-72
2023/09/13 10:56:21;;;;;;;;;;;23.10;65.50;;;;;;5061789;28;19972;-72
2023/09/13 10:58:49;;;;;;;;;;;23.10;65.30;;;;;;5046029;28;19925;-71
2023/09/13 11:01:15;;;;;;;;;;;23.10;65.30;;;;;;5059116;28;19924;-73
2023/09/13 11:03:41;;;;;;;;;;;23.10;65.40;;;;;;5042144;28;19982;-69
2023/09/13 11:06:07;;;;;;;;;;;23.10;65.60;;;;;;5039534;28;21472;-68
2023/09/13 11:08:35;;;;;;;;;;;23.00;65.60;;;;;;5038867;28;22331;-69
2023/09/13 11:11:08;;;;;;;;;;;23.00;65.50;;;;;;5072878;28;19932;-68
2023/09/13 11:13:34;;;;;;;;;;;23.00;66.20;;;;;;5043511;28;19928;-68
2023/09/13 11:16:01;;;;;;;;;;;23.00;65.40;;;;;;5041527;28;19928;-69
2023/09/13 11:18:27;;;;;;;;;;;23.00;65.40;;;;;;5062396;28;19978;-69
2023/09/13 11:20:53;;;;;;;;;;;23.00;65.40;;;;;;5043705;28;20376;-68
2023/09/13 11:23:19;;;;;;;;;;;22.90;65.40;;;;;;5042002;28;19925;-68
2023/09/13 11:25:53;;;;;;;;;;;22.90;65.40;;;;;;5042328;28;19927;-68
2023/09/13 11:28:38;;;;;;;;;;;22.90;65.40;;;;;;5043973;28;20001;-68
2023/09/13 11:31:08;;;;;;;;;;;22.90;65.50;;;;;;5065699;28;19938;-68
2023/09/13 11:33:55;;;;;;;;;;;22.90;65.50;;;;;;5070905;28;20013;-68
2023/09/13 11:36:20;;;;;;;;;;;22.90;65.50;;;;;;5046967;28;20344;-68
2023/09/13 11:38:51;;;;;;;;;;;22.90;65.60;;;;;;5046291;28;20832;-68
2023/09/13 11:41:17;;;;;;;;;;;22.90;65.70;;;;;;5063436;28;19931;-68
2023/09/13 11:43:43;;;;;;;;;;;22.90;65.70;;;;;;5062221;28;19921;-68
2023/09/13 11:46:08;;;;;;;;;;;23.00;66.60;;;;;;5059497;28;19924;-68
2023/09/13 11:48:41;;;;;;;;;;;22.90;65.80;;;;;;5047228;28;20745;-67
2023/09/13 11:51:09;;;;;;;;;;;22.90;65.80;;;;;;5042976;28;20654;-67
2023/09/13 11:53:35;;;;;;;;;;;22.90;65.80;;;;;;5058266;28;20365;-67
2023/09/13 11:56:02;;;;;;;;;;;22.90;65.80;;;;;;5046957;28;19931;-67
2023/09/13 11:58:36;;;;;;;;;;;22.90;65.80;;;;;;5077811;28;20074;-68
2023/09/13 12:01:04;;;;;;;;;;;22.90;65.80;;;;;;5074799;28;19982;-68
2023/09/13 12:03:32;;;;;;;;;;;22.90;65.90;;;;;;5062419;28;19943;-68
2023/09/13 12:05:57;;;;;;;;;;;22.90;65.90;;;;;;5039629;28;19920;-68
2023/09/13 12:08:24;;;;;;;;;;;22.90;65.90;;;;;;5077971;28;20441;-68
2023/09/13 12:10:50;;;;;;;;;;;22.90;65.90;;;;;;5052383;28;19958;-68
2023/09/13 12:13:16;;;;;;;;;;;23.00;66.00;;;;;;5066289;28;19928;-68
2023/09/13 12:15:58;;;;;;;;;;;22.90;65.90;;;;;;5067432;28;19929;-68
2023/09/13 12:18:24;;;;;;;;;;;23.00;66.00;;;;;;5070534;28;20363;-68
2023/09/13 12:20:49;;;;;;;;;;;23.00;65.90;;;;;;5068392;28;19935;-68
2023/09/13 12:23:16;;;;;;;;;;;23.00;66.00;;;;;;5078029;28;20291;-68
2023/09/13 12:25:41;;;;;;;;;;;23.00;65.90;;;;;;5046428;28;19932;-68
2023/09/13 12:28:07;;;;;;;;;;;23.00;65.90;;;;;;5064076;28;20006;-68
2023/09/13 12:30:32;;;;;;;;;;;23.00;65.90;;;;;;5045896;28;19960;-68
2023/09/13 12:32:58;;;;;;;;;;;23.00;65.90;;;;;;5081363;28;19920;-68
2023/09/13 12:35:24;;;;;;;;;;;23.00;65.90;;;;;;5070272;28;20368;-68
2023/09/13 12:38:04;;;;;;;;;;;23.00;65.90;;;;;;5066200;28;20016;-68
2023/09/13 12:40:30;;;;;;;;;;;23.00;65.90;;;;;;5075641;28;20019;-69
2023/09/13 12:42:56;;;;;;;;;;;23.00;65.90;;;;;;5075850;28;20438;-67
2023/09/13 12:45:21;;;;;;;;;;;23.00;65.90;;;;;;5070279;28;20399;-68
2023/09/13 12:47:48;;;;;;;;;;;23.00;65.90;;;;;;5068329;28;19928;-69
2023/09/13 12:50:14;;;;;;;;;;;23.00;66.00;;;;;;5045145;28;19924;-68
2023/09/13 12:52:40;;;;;;;;;;;23.00;65.90;;;;;;5048165;28;20371;-69
2023/09/13 12:55:06;;;;;;;;;;;23.00;65.90;;;;;;5050837;28;19924;-69
2023/09/13 12:57:31;;;;;;;;;;;23.00;65.90;;;;;;5048943;28;19935;-69
2023/09/13 12:59:57;;;;;;;;;;;23.00;65.90;;;;;;5048026;28;19925;-69
2023/09/13 13:02:25;;;;;;;;;;;23.00;65.90;;;;;;5064466;28;19931;-69
2023/09/13 13:04:53;;;;;;;;;;;23.00;65.90;;;;;;5073372;28;20199;-69
2023/09/13 13:07:22;;;;;;;;;;;23.00;66.00;;;;;;5047487;28;21290;-68
2023/09/13 13:09:49;;;;;;;;;;;23.00;65.90;;;;;;5060032;28;19952;-69
2023/09/13 13:12:15;;;;;;;;;;;23.00;65.90;;;;;;5047338;28;19924;-68
2023/09/13 13:14:47;;;;;;;;;;;23.00;65.90;;;;;;5049371;28;19959;-69
2023/09/13 13:17:13;;;;;;;;;;;23.00;65.90;;;;;;5049376;28;20394;-69
2023/09/13 13:19:39;;;;;;;;;;;23.00;66.60;;;;;;5045130;28;20019;-69
2023/09/13 13:22:07;;;;;;;;;;;23.00;65.90;;;;;;5080474;28;20566;-69
2023/09/13 13:24:32;;;;;;;;;;;23.00;65.90;;;;;;5051121;28;19978;-68
2023/09/13 13:26:58;;;;;;;;;;;23.00;65.90;;;;;;5047127;28;20342;-68
2023/09/13 13:29:23;;;;;;;;;;;23.00;65.90;;;;;;5066448;28;19973;-68
2023/09/13 13:31:49;;;;;;;;;;;23.00;65.90;;;;;;5045217;28;19931;-69
2023/09/13 13:34:15;;;;;;;;;;;23.00;65.90;;;;;;5078838;28;19931;-69
2023/09/13 13:36:41;;;;;;;;;;;23.00;65.90;;;;;;5047736;28;19928;-69
2023/09/13 13:39:06;;;;;;;;;;;23.00;65.90;;;;;;5045184;28;19920;-68
2023/09/13 13:41:32;;;;;;;;;;;22.90;65.90;;;;;;5044798;28;19925;-68
2023/09/13 13:43:59;;;;;;;;;;;23.00;65.90;;;;;;5061484;28;20017;-69
2023/09/13 13:46:26;;;;;;;;;;;22.90;65.80;;;;;;5061287;28;19927;-67
2023/09/13 13:48:53;;;;;;;;;;;22.90;65.90;;;;;;5044956;28;19939;-72
2023/09/13 13:51:18;;;;;;;;;;;23.00;65.90;;;;;;5070887;28;19920;-72
2023/09/13 13:53:44;;;;;;;;;;;22.90;65.60;;;;;;5070493;28;19929;-71
2023/09/13 13:56:09;;;;;;;;;;;22.90;65.40;;;;;;5052252;28;19944;-70
2023/09/13 13:58:35;;;;;;;;;;;22.90;65.00;;;;;;5066823;28;19938;-69
2023/09/13 14:01:03;;;;;;;;;;;23.00;64.70;;;;;;5072502;28;19934;-68
2023/09/13 14:03:29;;;;;;;;;;;23.00;64.50;;;;;;5049992;28;19920;-69
2023/09/13 14:05:54;;;;;;;;;;;23.00;64.40;;;;;;5049062;28;20609;-68
2023/09/13 14:08:21;;;;;;;;;;;23.00;64.20;;;;;;5050514;28;19924;-69
2023/09/13 14:10:47;;;;;;;;;;;23.00;64.10;;;;;;5046092;28;19936;-68